sensor_id;sensor_type;location;lat;lon;timestamp;pressure;altitude;pressure_sealevel;temperature;humidity
41703;BME280;861;48.808;9.006;2022-07-29T00:01:43;96929.78;;;23.29;65.76
41703;BME280;861;48.808;9.006;2022-07-29T00:04:11;96917.44;;;23.30;65.85
41703;BME280;861;48.808;9.006;2022-07-29T00:06:38;96918.53;;;23.24;66.40
41703;BME280;861;48.808;9.006;2022-07-29T00:09:05;96913.28;;;23.17;66.55
41703;BME280;861;48.808;9.006;2022-07-29T00:11:32;96904.22;;;23.16;66.66
41703;BME280;861;48.808;9.006;2022-07-29T00:13:58;96902.25;;;23.08;66.89
41703;BME280;861;48.808;9.006;2022-07-29T00:16:24;96906.53;;;23.09;66.95
41703;BME280;861;48.808;9.006;2022-07-29T00:18:50;96894.03;;;23.13;66.43
41703;BME280;861;48.808;9.006;2022-07-29T00:21:17;96900.09;;;23.03;66.71
41703;BME280;861;48.808;9.006;2022-07-29T00:23:43;96905.41;;;22.92;67.19
41703;BME280;861;48.808;9.006;2022-07-29T00:26:09;96911.94;;;22.80;67.71
41703;BME280;861;48.808;9.006;2022-07-29T00:28:35;96911.00;;;22.83;67.78
41703;BME280;861;48.808;9.006;2022-07-29T00:31:02;96916.41;;;22.77;67.59
41703;BME280;861;48.808;9.006;2022-07-29T00:33:29;96908.06;;;22.86;67.75
41703;BME280;861;48.808;9.006;2022-07-29T00:35:55;96907.44;;;22.91;67.14
41703;BME280;861;48.808;9.006;2022-07-29T00:38:21;96907.78;;;22.75;67.78
41703;BME280;861;48.808;9.006;2022-07-29T00:40:48;96907.91;;;22.81;67.77
41703;BME280;861;48.808;9.006;2022-07-29T00:43:15;96896.28;;;22.58;68.39
41703;BME280;861;48.808;9.006;2022-07-29T00:45:43;96892.28;;;22.59;68.13
41703;BME280;861;48.808;9.006;2022-07-29T00:48:10;96885.78;;;22.62;68.41
41703;BME280;861;48.808;9.006;2022-07-29T00:50:37;96889.81;;;22.52;68.85
41703;BME280;861;48.808;9.006;2022-07-29T00:53:07;96881.63;;;22.49;69.04
41703;BME280;861;48.808;9.006;2022-07-29T00:55:35;96878.09;;;22.39;69.30
41703;BME280;861;48.808;9.006;2022-07-29T00:58:02;96879.34;;;22.38;69.73
41703;BME280;861;48.808;9.006;2022-07-29T01:00:31;96873.38;;;22.22;69.67
41703;BME280;861;48.808;9.006;2022-07-29T01:02:57;96875.41;;;22.21;69.92
41703;BME280;861;48.808;9.006;2022-07-29T01:05:28;96868.09;;;22.42;69.69
41703;BME280;861;48.808;9.006;2022-07-29T01:07:58;96869.69;;;22.25;70.40
41703;BME280;861;48.808;9.006;2022-07-29T01:10:28;96871.44;;;22.04;70.94
41703;BME280;861;48.808;9.006;2022-07-29T01:13:00;96864.03;;;21.92;71.77
41703;BME280;861;48.808;9.006;2022-07-29T01:15:28;96862.50;;;21.91;71.71
41703;BME280;861;48.808;9.006;2022-07-29T01:18:14;96863.88;;;21.96;71.96
41703;BME280;861;48.808;9.006;2022-07-29T01:24:55;96860.81;;;21.76;72.80
41703;BME280;861;48.808;9.006;2022-07-29T01:30:34;96862.66;;;21.88;72.65
41703;BME280;861;48.808;9.006;2022-07-29T01:33:11;96861.88;;;21.87;72.62
41703;BME280;861;48.808;9.006;2022-07-29T01:36:14;96863.56;;;21.85;72.94
41703;BME280;861;48.808;9.006;2022-07-29T01:39:02;96857.91;;;21.79;73.41
41703;BME280;861;48.808;9.006;2022-07-29T01:41:54;96859.88;;;21.88;73.44
41703;BME280;861;48.808;9.006;2022-07-29T01:44:50;96860.94;;;21.72;73.51
41703;BME280;861;48.808;9.006;2022-07-29T01:47:37;96856.19;;;21.73;73.82
41703;BME280;861;48.808;9.006;2022-07-29T01:50:12;96856.03;;;21.76;73.45
41703;BME280;861;48.808;9.006;2022-07-29T01:53:09;96851.84;;;21.72;73.58
41703;BME280;861;48.808;9.006;2022-07-29T01:55:48;96857.56;;;21.68;73.44
41703;BME280;861;48.808;9.006;2022-07-29T01:58:21;96856.34;;;21.60;73.66
41703;BME280;861;48.808;9.006;2022-07-29T02:00:52;96864.03;;;21.74;73.57
41703;BME280;861;48.808;9.006;2022-07-29T02:03:23;96853.25;;;21.76;73.23
41703;BME280;861;48.808;9.006;2022-07-29T02:05:53;96856.66;;;21.80;72.69
41703;BME280;861;48.808;9.006;2022-07-29T02:08:28;96848.00;;;21.87;72.46
41703;BME280;861;48.808;9.006;2022-07-29T02:11:01;96849.72;;;21.85;72.92
41703;BME280;861;48.808;9.006;2022-07-29T02:13:35;96845.41;;;21.93;72.40
41703;BME280;861;48.808;9.006;2022-07-29T02:16:09;96841.69;;;21.69;73.13
41703;BME280;861;48.808;9.006;2022-07-29T02:18:43;96844.94;;;21.67;72.94
41703;BME280;861;48.808;9.006;2022-07-29T02:21:19;96856.47;;;21.57;73.43
41703;BME280;861;48.808;9.006;2022-07-29T02:23:54;96855.72;;;21.47;74.05
41703;BME280;861;48.808;9.006;2022-07-29T02:26:27;96849.56;;;21.52;73.58
41703;BME280;861;48.808;9.006;2022-07-29T02:28:59;96846.63;;;21.56;73.38
41703;BME280;861;48.808;9.006;2022-07-29T02:31:34;96850.00;;;21.60;72.91
41703;BME280;861;48.808;9.006;2022-07-29T02:34:10;96858.00;;;21.58;73.04
41703;BME280;861;48.808;9.006;2022-07-29T02:36:40;96856.63;;;21.62;73.19
41703;BME280;861;48.808;9.006;2022-07-29T02:39:12;96859.09;;;21.60;72.94
41703;BME280;861;48.808;9.006;2022-07-29T02:41:54;96852.16;;;21.38;73.90
41703;BME280;861;48.808;9.006;2022-07-29T02:44:26;96854.91;;;21.19;74.58
41703;BME280;861;48.808;9.006;2022-07-29T02:49:57;96847.88;;;21.37;73.90
41703;BME280;861;48.808;9.006;2022-07-29T02:52:45;96842.47;;;21.51;73.37
41703;BME280;861;48.808;9.006;2022-07-29T02:55:37;96841.84;;;21.56;73.66
41703;BME280;861;48.808;9.006;2022-07-29T03:01:13;96838.16;;;21.50;73.44
41703;BME280;861;48.808;9.006;2022-07-29T03:03:48;96848.47;;;21.50;73.43
41703;BME280;861;48.808;9.006;2022-07-29T03:06:23;96840.78;;;21.45;73.81
41703;BME280;861;48.808;9.006;2022-07-29T03:08:56;96840.47;;;21.52;73.51
41703;BME280;861;48.808;9.006;2022-07-29T03:11:25;96836.91;;;21.51;73.37
41703;BME280;861;48.808;9.006;2022-07-29T03:13:55;96846.19;;;21.57;73.90
41703;BME280;861;48.808;9.006;2022-07-29T03:16:23;96847.84;;;21.64;73.19
41703;BME280;861;48.808;9.006;2022-07-29T03:18:52;96845.56;;;21.71;72.82
41703;BME280;861;48.808;9.006;2022-07-29T03:21:19;96856.63;;;21.71;72.89
41703;BME280;861;48.808;9.006;2022-07-29T03:23:45;96861.88;;;21.69;72.81
41703;BME280;861;48.808;9.006;2022-07-29T03:26:13;96862.66;;;21.70;72.71
41703;BME280;861;48.808;9.006;2022-07-29T03:28:39;96860.97;;;21.81;72.53
41703;BME280;861;48.808;9.006;2022-07-29T03:31:05;96862.94;;;21.72;72.76
41703;BME280;861;48.808;9.006;2022-07-29T03:33:31;96856.00;;;21.67;72.72
41703;BME280;861;48.808;9.006;2022-07-29T03:35:58;96862.03;;;21.48;73.43
41703;BME280;861;48.808;9.006;2022-07-29T03:38:30;96859.56;;;21.32;74.03
41703;BME280;861;48.808;9.006;2022-07-29T03:41:10;96866.63;;;21.23;73.74
41703;BME280;861;48.808;9.006;2022-07-29T03:43:42;96861.53;;;21.31;72.94
41703;BME280;861;48.808;9.006;2022-07-29T03:46:11;96868.13;;;21.15;73.47
41703;BME280;861;48.808;9.006;2022-07-29T03:48:48;96865.38;;;21.15;73.41
41703;BME280;861;48.808;9.006;2022-07-29T03:51:18;96867.41;;;21.33;72.20
41703;BME280;861;48.808;9.006;2022-07-29T03:53:45;96867.72;;;21.62;71.07
41703;BME280;861;48.808;9.006;2022-07-29T03:56:21;96864.03;;;21.38;71.84
41703;BME280;861;48.808;9.006;2022-07-29T03:58:52;96863.06;;;21.32;72.04
41703;BME280;861;48.808;9.006;2022-07-29T04:01:22;96864.59;;;21.15;72.58
41703;BME280;861;48.808;9.006;2022-07-29T04:03:49;96859.97;;;21.12;72.61
41703;BME280;861;48.808;9.006;2022-07-29T04:06:16;96860.56;;;21.07;72.90
41703;BME280;861;48.808;9.006;2022-07-29T04:08:42;96862.28;;;21.04;72.94
41703;BME280;861;48.808;9.006;2022-07-29T04:11:09;96870.72;;;21.01;73.04
41703;BME280;861;48.808;9.006;2022-07-29T04:13:35;96861.06;;;21.14;72.59
41703;BME280;861;48.808;9.006;2022-07-29T04:16:01;96866.28;;;21.12;72.44
41703;BME280;861;48.808;9.006;2022-07-29T04:18:28;96866.97;;;20.95;73.64
41703;BME280;861;48.808;9.006;2022-07-29T04:20:54;96869.19;;;20.69;74.40
41703;BME280;861;48.808;9.006;2022-07-29T04:23:20;96874.56;;;20.33;75.19
41703;BME280;861;48.808;9.006;2022-07-29T04:25:47;96872.84;;;20.05;76.88
41703;BME280;861;48.808;9.006;2022-07-29T04:28:13;96876.00;;;19.95;76.80
41703;BME280;861;48.808;9.006;2022-07-29T04:30:39;96874.84;;;20.05;76.29
41703;BME280;861;48.808;9.006;2022-07-29T04:33:07;96873.03;;;20.32;75.01
41703;BME280;861;48.808;9.006;2022-07-29T04:35:37;96871.94;;;20.30;75.13
41703;BME280;861;48.808;9.006;2022-07-29T04:38:06;96864.25;;;20.64;74.16
41703;BME280;861;48.808;9.006;2022-07-29T04:40:33;96869.66;;;20.68;73.47
41703;BME280;861;48.808;9.006;2022-07-29T04:43:00;96867.94;;;20.61;73.79
41703;BME280;861;48.808;9.006;2022-07-29T04:45:28;96879.66;;;20.65;73.92
41703;BME280;861;48.808;9.006;2022-07-29T04:47:55;96864.56;;;20.66;73.29
41703;BME280;861;48.808;9.006;2022-07-29T04:50:22;96864.22;;;20.55;74.41
41703;BME280;861;48.808;9.006;2022-07-29T04:52:49;96868.44;;;20.69;74.06
41703;BME280;861;48.808;9.006;2022-07-29T04:55:15;96861.38;;;20.77;73.78
41703;BME280;861;48.808;9.006;2022-07-29T04:57:41;96858.78;;;20.82;73.51
41703;BME280;861;48.808;9.006;2022-07-29T05:00:09;96864.00;;;20.80;73.45
41703;BME280;861;48.808;9.006;2022-07-29T05:02:35;96868.53;;;20.96;73.17
41703;BME280;861;48.808;9.006;2022-07-29T05:05:02;96867.34;;;21.06;73.10
41703;BME280;861;48.808;9.006;2022-07-29T05:07:28;96874.28;;;21.10;73.14
41703;BME280;861;48.808;9.006;2022-07-29T05:09:54;96872.72;;;21.00;73.41
41703;BME280;861;48.808;9.006;2022-07-29T05:12:24;96875.38;;;21.13;73.36
41703;BME280;861;48.808;9.006;2022-07-29T05:14:51;96877.69;;;21.23;72.58
41703;BME280;861;48.808;9.006;2022-07-29T05:17:18;96879.22;;;21.24;72.88
41703;BME280;861;48.808;9.006;2022-07-29T05:19:44;96873.09;;;21.30;72.91
41703;BME280;861;48.808;9.006;2022-07-29T05:22:11;96872.16;;;21.23;73.63
41703;BME280;861;48.808;9.006;2022-07-29T05:24:37;96880.16;;;21.31;72.96
41703;BME280;861;48.808;9.006;2022-07-29T05:27:03;96875.72;;;21.42;73.05
41703;BME280;861;48.808;9.006;2022-07-29T05:29:30;96881.84;;;21.37;73.01
41703;BME280;861;48.808;9.006;2022-07-29T05:31:56;96884.16;;;21.30;73.44
41703;BME280;861;48.808;9.006;2022-07-29T05:34:22;96886.19;;;21.38;74.01
41703;BME280;861;48.808;9.006;2022-07-29T05:36:49;96884.50;;;21.41;73.64
41703;BME280;861;48.808;9.006;2022-07-29T05:39:15;96872.00;;;21.45;73.84
41703;BME280;861;48.808;9.006;2022-07-29T05:41:42;96882.50;;;21.59;73.31
41703;BME280;861;48.808;9.006;2022-07-29T05:44:09;96878.50;;;21.60;72.59
41703;BME280;861;48.808;9.006;2022-07-29T05:46:35;96887.88;;;21.63;73.23
41703;BME280;861;48.808;9.006;2022-07-29T05:49:01;96884.81;;;21.52;73.80
41703;BME280;861;48.808;9.006;2022-07-29T05:51:28;96890.19;;;21.64;73.33
41703;BME280;861;48.808;9.006;2022-07-29T05:53:55;96888.97;;;21.65;73.08
41703;BME280;861;48.808;9.006;2022-07-29T05:56:22;96892.84;;;21.86;72.85
41703;BME280;861;48.808;9.006;2022-07-29T05:58:48;96893.44;;;21.99;72.21
41703;BME280;861;48.808;9.006;2022-07-29T06:01:14;96897.47;;;21.98;72.35
41703;BME280;861;48.808;9.006;2022-07-29T06:03:40;96891.75;;;22.10;71.63
41703;BME280;861;48.808;9.006;2022-07-29T06:06:07;96892.22;;;22.09;72.09
41703;BME280;861;48.808;9.006;2022-07-29T06:08:34;96896.22;;;22.17;71.69
41703;BME280;861;48.808;9.006;2022-07-29T06:11:01;96907.88;;;22.39;71.08
41703;BME280;861;48.808;9.006;2022-07-29T06:13:28;96908.34;;;22.37;71.20
41703;BME280;861;48.808;9.006;2022-07-29T06:15:54;96915.38;;;22.65;69.98
41703;BME280;861;48.808;9.006;2022-07-29T06:18:21;96914.31;;;22.63;70.25
41703;BME280;861;48.808;9.006;2022-07-29T06:20:53;96920.19;;;22.47;70.35
41703;BME280;861;48.808;9.006;2022-07-29T06:23:20;96918.81;;;22.51;70.55
41703;BME280;861;48.808;9.006;2022-07-29T06:25:47;96924.94;;;22.64;70.22
41703;BME280;861;48.808;9.006;2022-07-29T06:28:14;96920.00;;;22.68;70.39
41703;BME280;861;48.808;9.006;2022-07-29T06:30:40;96924.31;;;22.69;70.18
41703;BME280;861;48.808;9.006;2022-07-29T06:33:06;96923.25;;;22.67;70.10
41703;BME280;861;48.808;9.006;2022-07-29T06:35:36;96918.91;;;22.66;70.09
41703;BME280;861;48.808;9.006;2022-07-29T06:38:03;96924.75;;;22.77;70.01
41703;BME280;861;48.808;9.006;2022-07-29T06:40:29;96924.28;;;22.79;69.74
41703;BME280;861;48.808;9.006;2022-07-29T06:43:14;96927.81;;;22.79;69.67
41703;BME280;861;48.808;9.006;2022-07-29T06:45:41;96934.59;;;22.87;69.68
41703;BME280;861;48.808;9.006;2022-07-29T06:48:09;96929.44;;;22.95;69.37
41703;BME280;861;48.808;9.006;2022-07-29T06:50:36;96932.94;;;23.13;69.08
41703;BME280;861;48.808;9.006;2022-07-29T06:53:03;96931.97;;;23.25;68.85
41703;BME280;861;48.808;9.006;2022-07-29T06:55:29;96934.41;;;23.56;67.52
41703;BME280;861;48.808;9.006;2022-07-29T06:57:55;96937.28;;;23.85;66.78
41703;BME280;861;48.808;9.006;2022-07-29T07:00:21;96945.94;;;23.87;66.19
41703;BME280;861;48.808;9.006;2022-07-29T07:02:48;96940.00;;;23.94;65.90
41703;BME280;861;48.808;9.006;2022-07-29T07:05:14;96941.00;;;24.05;64.72
41703;BME280;861;48.808;9.006;2022-07-29T07:07:40;96939.97;;;24.03;66.43
41703;BME280;861;48.808;9.006;2022-07-29T07:10:07;96948.19;;;23.97;66.54
41703;BME280;861;48.808;9.006;2022-07-29T07:12:34;96941.59;;;24.09;66.17
41703;BME280;861;48.808;9.006;2022-07-29T07:15:00;96944.53;;;24.30;65.10
41703;BME280;861;48.808;9.006;2022-07-29T07:17:26;96942.00;;;24.17;65.55
41703;BME280;861;48.808;9.006;2022-07-29T07:19:53;96952.38;;;24.31;65.21
41703;BME280;861;48.808;9.006;2022-07-29T07:22:19;96949.88;;;24.33;64.78
41703;BME280;861;48.808;9.006;2022-07-29T07:24:45;96954.03;;;24.38;64.68
41703;BME280;861;48.808;9.006;2022-07-29T07:27:11;96949.81;;;24.42;64.33
41703;BME280;861;48.808;9.006;2022-07-29T07:29:37;96954.81;;;24.53;64.10
41703;BME280;861;48.808;9.006;2022-07-29T07:32:07;96950.69;;;24.63;64.35
41703;BME280;861;48.808;9.006;2022-07-29T07:34:34;96953.56;;;24.83;64.11
41703;BME280;861;48.808;9.006;2022-07-29T07:37:01;96957.41;;;24.85;62.88
41703;BME280;861;48.808;9.006;2022-07-29T07:39:27;96954.53;;;24.94;63.02
41703;BME280;861;48.808;9.006;2022-07-29T07:41:53;96957.56;;;25.25;61.37
41703;BME280;861;48.808;9.006;2022-07-29T07:44:19;96961.78;;;25.35;61.09
41703;BME280;861;48.808;9.006;2022-07-29T07:46:45;96950.38;;;25.53;60.38
41703;BME280;861;48.808;9.006;2022-07-29T07:49:11;96955.47;;;25.55;59.77
41703;BME280;861;48.808;9.006;2022-07-29T07:51:38;96949.34;;;25.71;58.74
41703;BME280;861;48.808;9.006;2022-07-29T07:54:04;96947.03;;;25.70;58.92
41703;BME280;861;48.808;9.006;2022-07-29T07:56:30;96950.81;;;25.67;59.00
41703;BME280;861;48.808;9.006;2022-07-29T07:58:57;96946.41;;;25.80;59.05
41703;BME280;861;48.808;9.006;2022-07-29T08:01:23;96958.34;;;25.81;59.22
41703;BME280;861;48.808;9.006;2022-07-29T08:03:50;96953.94;;;25.74;59.10
41703;BME280;861;48.808;9.006;2022-07-29T08:06:16;96961.63;;;25.59;58.92
41703;BME280;861;48.808;9.006;2022-07-29T08:08:42;96956.00;;;25.94;56.93
41703;BME280;861;48.808;9.006;2022-07-29T08:11:08;96956.72;;;25.94;57.25
41703;BME280;861;48.808;9.006;2022-07-29T08:13:36;96955.75;;;25.97;57.45
41703;BME280;861;48.808;9.006;2022-07-29T08:16:04;96957.72;;;26.11;57.15
41703;BME280;861;48.808;9.006;2022-07-29T08:18:41;96961.50;;;26.28;56.66
41703;BME280;861;48.808;9.006;2022-07-29T08:21:09;96961.66;;;26.45;54.78
41703;BME280;861;48.808;9.006;2022-07-29T08:23:35;96956.50;;;26.63;53.07
41703;BME280;861;48.808;9.006;2022-07-29T08:26:13;96955.28;;;26.44;53.03
41703;BME280;861;48.808;9.006;2022-07-29T08:28:45;96959.31;;;26.38;52.87
41703;BME280;861;48.808;9.006;2022-07-29T08:31:16;96959.44;;;26.29;52.11
41703;BME280;861;48.808;9.006;2022-07-29T08:33:45;96956.34;;;26.47;51.97
41703;BME280;861;48.808;9.006;2022-07-29T08:36:11;96961.81;;;26.36;51.87
41703;BME280;861;48.808;9.006;2022-07-29T08:38:38;96954.34;;;26.47;51.28
41703;BME280;861;48.808;9.006;2022-07-29T08:41:05;96954.09;;;26.51;52.88
41703;BME280;861;48.808;9.006;2022-07-29T08:43:32;96955.47;;;26.61;52.57
41703;BME280;861;48.808;9.006;2022-07-29T08:46:00;96953.09;;;26.74;51.78
41703;BME280;861;48.808;9.006;2022-07-29T08:48:27;96951.22;;;26.96;51.30
41703;BME280;861;48.808;9.006;2022-07-29T08:50:56;96950.56;;;27.38;51.74
41703;BME280;861;48.808;9.006;2022-07-29T08:53:28;96956.47;;;27.15;54.16
41703;BME280;861;48.808;9.006;2022-07-29T08:55:55;96953.09;;;27.05;54.08
41703;BME280;861;48.808;9.006;2022-07-29T08:58:26;96961.69;;;27.33;53.68
41703;BME280;861;48.808;9.006;2022-07-29T09:01:01;96953.94;;;27.48;52.42
41703;BME280;861;48.808;9.006;2022-07-29T09:03:34;96949.09;;;27.48;52.49
41703;BME280;861;48.808;9.006;2022-07-29T09:06:04;96956.72;;;27.48;50.73
41703;BME280;861;48.808;9.006;2022-07-29T09:08:33;96952.19;;;27.56;50.36
41703;BME280;861;48.808;9.006;2022-07-29T09:11:02;96952.03;;;27.76;49.79
41703;BME280;861;48.808;9.006;2022-07-29T09:13:29;96956.69;;;27.84;49.09
41703;BME280;861;48.808;9.006;2022-07-29T09:15:55;96956.03;;;28.06;49.10
41703;BME280;861;48.808;9.006;2022-07-29T09:18:45;96957.88;;;28.36;47.83
41703;BME280;861;48.808;9.006;2022-07-29T09:21:16;96963.25;;;28.40;48.37
41703;BME280;861;48.808;9.006;2022-07-29T09:24:18;96961.44;;;28.20;49.94
41703;BME280;861;48.808;9.006;2022-07-29T09:26:46;96956.09;;;28.33;50.33
41703;BME280;861;48.808;9.006;2022-07-29T09:29:22;96959.38;;;28.21;51.05
41703;BME280;861;48.808;9.006;2022-07-29T09:31:55;96961.66;;;28.22;53.06
41703;BME280;861;48.808;9.006;2022-07-29T09:34:28;96952.00;;;28.23;52.14
41703;BME280;861;48.808;9.006;2022-07-29T09:36:57;96955.44;;;27.91;53.36
41703;BME280;861;48.808;9.006;2022-07-29T09:39:39;96953.53;;;28.19;48.87
41703;BME280;861;48.808;9.006;2022-07-29T09:42:12;96953.56;;;28.30;47.83
41703;BME280;861;48.808;9.006;2022-07-29T09:44:44;96949.97;;;28.24;49.47
41703;BME280;861;48.808;9.006;2022-07-29T09:47:12;96946.75;;;28.53;47.40
41703;BME280;861;48.808;9.006;2022-07-29T09:49:58;96949.13;;;28.01;48.32
41703;BME280;861;48.808;9.006;2022-07-29T09:52:29;96949.91;;;27.60;50.09
41703;BME280;861;48.808;9.006;2022-07-29T09:55:10;96950.41;;;27.58;50.36
41703;BME280;861;48.808;9.006;2022-07-29T09:57:39;96939.88;;;27.37;49.93
41703;BME280;861;48.808;9.006;2022-07-29T10:00:15;96939.22;;;27.22;49.72
41703;BME280;861;48.808;9.006;2022-07-29T10:02:47;96930.81;;;27.16;49.04
41703;BME280;861;48.808;9.006;2022-07-29T10:05:26;96943.00;;;27.19;48.25
41703;BME280;861;48.808;9.006;2022-07-29T10:07:57;96949.72;;;27.27;47.04
41703;BME280;861;48.808;9.006;2022-07-29T10:10:34;96952.09;;;27.08;47.84
41703;BME280;861;48.808;9.006;2022-07-29T10:13:09;96949.41;;;26.88;49.08
41703;BME280;861;48.808;9.006;2022-07-29T10:15:42;96953.91;;;26.80;50.16
41703;BME280;861;48.808;9.006;2022-07-29T10:18:13;96952.41;;;26.84;47.10
41703;BME280;861;48.808;9.006;2022-07-29T10:20:42;96952.34;;;26.79;48.30
41703;BME280;861;48.808;9.006;2022-07-29T10:23:10;96950.28;;;26.74;47.84
41703;BME280;861;48.808;9.006;2022-07-29T10:25:36;96945.41;;;26.69;47.38
41703;BME280;861;48.808;9.006;2022-07-29T10:28:05;96955.47;;;26.35;49.19
41703;BME280;861;48.808;9.006;2022-07-29T10:30:32;96949.44;;;26.17;49.74
41703;BME280;861;48.808;9.006;2022-07-29T10:33:33;96947.00;;;26.04;51.11
41703;BME280;861;48.808;9.006;2022-07-29T10:36:43;96955.88;;;26.03;52.59
41703;BME280;861;48.808;9.006;2022-07-29T10:43:37;96957.31;;;25.98;55.34
41703;BME280;861;48.808;9.006;2022-07-29T10:46:12;96955.50;;;25.95;54.75
41703;BME280;861;48.808;9.006;2022-07-29T10:49:17;96958.06;;;25.99;55.44
41703;BME280;861;48.808;9.006;2022-07-29T10:52:05;96965.28;;;26.05;54.55
41703;BME280;861;48.808;9.006;2022-07-29T10:54:48;96965.22;;;26.00;58.12
41703;BME280;861;48.808;9.006;2022-07-29T10:57:28;96977.44;;;25.33;62.93
41703;BME280;861;48.808;9.006;2022-07-29T11:05:12;96940.53;;;25.23;66.92
41703;BME280;861;48.808;9.006;2022-07-29T11:10:40;96954.06;;;24.81;68.48
41703;BME280;861;48.808;9.006;2022-07-29T11:13:07;96956.97;;;24.72;69.04
41703;BME280;861;48.808;9.006;2022-07-29T11:15:57;96957.81;;;24.78;69.46
41703;BME280;861;48.808;9.006;2022-07-29T11:18:24;96954.34;;;24.69;69.02
41703;BME280;861;48.808;9.006;2022-07-29T11:20:51;96957.44;;;24.71;71.31
41703;BME280;861;48.808;9.006;2022-07-29T11:23:28;96949.75;;;24.80;71.37
41703;BME280;861;48.808;9.006;2022-07-29T11:26:20;96956.06;;;24.95;71.93
41703;BME280;861;48.808;9.006;2022-07-29T11:31:35;96949.22;;;25.80;72.27
41703;BME280;861;48.808;9.006;2022-07-29T11:34:29;96945.47;;;26.03;71.39
41703;BME280;861;48.808;9.006;2022-07-29T11:45:22;96952.75;;;26.21;66.32
41703;BME280;861;48.808;9.006;2022-07-29T11:47:57;96952.88;;;26.32;66.85
41703;BME280;861;48.808;9.006;2022-07-29T11:50:37;96947.53;;;26.28;66.70
41703;BME280;861;48.808;9.006;2022-07-29T11:53:12;96942.81;;;26.40;64.55
41703;BME280;861;48.808;9.006;2022-07-29T11:55:40;96948.75;;;26.47;66.11
41703;BME280;861;48.808;9.006;2022-07-29T11:58:08;96953.88;;;26.54;65.93
41703;BME280;861;48.808;9.006;2022-07-29T12:00:40;96953.09;;;26.74;60.88
41703;BME280;861;48.808;9.006;2022-07-29T12:03:11;96957.63;;;26.71;62.76
41703;BME280;861;48.808;9.006;2022-07-29T12:05:45;96956.50;;;26.63;64.07
41703;BME280;861;48.808;9.006;2022-07-29T12:08:19;96953.25;;;26.65;66.63
41703;BME280;861;48.808;9.006;2022-07-29T12:10:50;96958.00;;;26.59;66.19
41703;BME280;861;48.808;9.006;2022-07-29T12:13:20;96955.28;;;26.44;66.64
41703;BME280;861;48.808;9.006;2022-07-29T12:15:56;96948.88;;;26.38;68.75
41703;BME280;861;48.808;9.006;2022-07-29T12:18:24;96960.50;;;26.31;66.43
41703;BME280;861;48.808;9.006;2022-07-29T12:21:02;96959.56;;;26.14;65.04
41703;BME280;861;48.808;9.006;2022-07-29T12:23:33;96961.81;;;25.96;63.84
41703;BME280;861;48.808;9.006;2022-07-29T12:26:05;96962.03;;;25.72;62.78
41703;BME280;861;48.808;9.006;2022-07-29T12:28:38;96964.91;;;25.58;61.88
41703;BME280;861;48.808;9.006;2022-07-29T12:31:05;96973.94;;;25.52;63.71
41703;BME280;861;48.808;9.006;2022-07-29T12:33:38;96975.78;;;25.55;65.54
41703;BME280;861;48.808;9.006;2022-07-29T12:36:06;96970.75;;;25.59;65.14
41703;BME280;861;48.808;9.006;2022-07-29T12:38:35;96959.16;;;25.46;65.35
41703;BME280;861;48.808;9.006;2022-07-29T12:41:03;96959.47;;;25.34;65.94
41703;BME280;861;48.808;9.006;2022-07-29T12:43:30;96962.53;;;25.36;65.08
41703;BME280;861;48.808;9.006;2022-07-29T12:46:14;96953.69;;;25.37;65.77
41703;BME280;861;48.808;9.006;2022-07-29T12:48:43;96967.25;;;25.44;66.00
41703;BME280;861;48.808;9.006;2022-07-29T12:51:11;96964.81;;;25.52;64.84
41703;BME280;861;48.808;9.006;2022-07-29T12:53:40;96960.00;;;25.52;66.55
41703;BME280;861;48.808;9.006;2022-07-29T12:56:16;96967.59;;;25.52;66.67
41703;BME280;861;48.808;9.006;2022-07-29T12:58:42;96975.91;;;25.46;65.06
41703;BME280;861;48.808;9.006;2022-07-29T13:01:17;96972.19;;;25.55;64.78
41703;BME280;861;48.808;9.006;2022-07-29T13:03:56;96965.34;;;25.36;65.87
41703;BME280;861;48.808;9.006;2022-07-29T13:06:44;96977.44;;;25.18;64.39
41703;BME280;861;48.808;9.006;2022-07-29T13:09:15;96974.66;;;25.18;63.19
41703;BME280;861;48.808;9.006;2022-07-29T13:11:50;96988.78;;;25.29;62.63
41703;BME280;861;48.808;9.006;2022-07-29T13:14:40;96981.97;;;25.30;64.34
41703;BME280;861;48.808;9.006;2022-07-29T13:17:22;96985.63;;;25.22;63.82
41703;BME280;861;48.808;9.006;2022-07-29T13:20:08;96981.63;;;25.08;63.58
41703;BME280;861;48.808;9.006;2022-07-29T13:22:42;96982.59;;;25.05;63.26
41703;BME280;861;48.808;9.006;2022-07-29T13:25:11;96986.41;;;25.08;63.64
41703;BME280;861;48.808;9.006;2022-07-29T13:27:39;96991.06;;;25.31;63.39
41703;BME280;861;48.808;9.006;2022-07-29T13:30:09;96993.13;;;25.30;61.26
41703;BME280;861;48.808;9.006;2022-07-29T13:32:36;96987.63;;;25.36;64.21
41703;BME280;861;48.808;9.006;2022-07-29T13:35:08;96986.13;;;25.35;64.75
41703;BME280;861;48.808;9.006;2022-07-29T13:37:36;96977.59;;;25.58;62.24
41703;BME280;861;48.808;9.006;2022-07-29T13:40:10;96979.97;;;25.86;63.60
41703;BME280;861;48.808;9.006;2022-07-29T13:42:37;96972.31;;;26.21;65.17
41703;BME280;861;48.808;9.006;2022-07-29T13:45:06;96977.25;;;26.57;61.01
41703;BME280;861;48.808;9.006;2022-07-29T13:47:32;96976.66;;;26.98;59.29
41703;BME280;861;48.808;9.006;2022-07-29T13:50:05;96981.25;;;26.96;62.54
41703;BME280;861;48.808;9.006;2022-07-29T13:52:33;96978.84;;;26.83;59.98
41703;BME280;861;48.808;9.006;2022-07-29T13:55:01;96970.84;;;26.71;58.60
41703;BME280;861;48.808;9.006;2022-07-29T13:57:29;96965.25;;;26.71;60.86
41703;BME280;861;48.808;9.006;2022-07-29T13:59:56;96960.47;;;26.77;58.71
41703;BME280;861;48.808;9.006;2022-07-29T14:02:23;96952.09;;;26.77;59.24
41703;BME280;861;48.808;9.006;2022-07-29T14:04:49;96955.31;;;26.70;61.13
41703;BME280;861;48.808;9.006;2022-07-29T14:07:16;96953.63;;;26.78;61.26
41703;BME280;861;48.808;9.006;2022-07-29T14:09:42;96949.31;;;26.77;61.68
41703;BME280;861;48.808;9.006;2022-07-29T14:12:09;96948.53;;;26.76;62.84
41703;BME280;861;48.808;9.006;2022-07-29T14:14:35;96949.47;;;26.68;61.63
41703;BME280;861;48.808;9.006;2022-07-29T14:17:03;96945.47;;;26.74;62.19
41703;BME280;861;48.808;9.006;2022-07-29T14:19:32;96949.69;;;26.64;61.42